Time;durP1;ratioP1;P1;durP2;ratioP2;P2;SDS_P1;SDS_P2;PMS_P1;PMS_P2;Temp;Humidity;BMP_temperature;BMP_pressure;BME280_temperature;BME280_humidity;BME280_pressure;Samples;Min_cycle;Max_cycle;Signal;HPM_P1;HPM_P2
2021/03/11 00:00:45;;;;;;;32.55;14.90;;;5.90;95.70;;;;;;5010276;28;20042;-74
2021/03/11 00:03:12;;;;;;;29.10;14.10;;;6.00;96.00;;;;;;4992329;28;20053;-75
2021/03/11 00:05:39;;;;;;;31.27;16.65;;;6.00;95.60;;;;;;4976778;28;20144;-75
2021/03/11 00:08:06;;;;;;;26.73;13.63;;;6.00;95.60;;;;;;4999027;28;20425;-74
2021/03/11 00:10:32;;;;;;;30.80;16.17;;;6.00;95.60;;;;;;4990151;28;20038;-74
2021/03/11 00:12:59;;;;;;;25.02;10.57;;;6.00;95.70;;;;;;4995710;28;20089;-74
2021/03/11 00:15:25;;;;;;;26.27;12.88;;;6.00;95.70;;;;;;5009377;28;20046;-75
2021/03/11 00:17:52;;;;;;;26.75;12.70;;;6.00;95.80;;;;;;5009860;28;20064;-74
2021/03/11 00:20:25;;;;;;;25.38;13.45;;;6.00;95.80;;;;;;5009435;28;20798;-75
2021/03/11 00:22:52;;;;;;;31.48;14.60;;;6.00;95.80;;;;;;5009765;28;20056;-75
2021/03/11 00:25:21;;;;;;;26.83;14.48;;;6.00;95.70;;;;;;4991938;28;20050;-75
2021/03/11 00:27:48;;;;;;;30.05;13.98;;;6.00;95.80;;;;;;4992002;28;20042;-76
2021/03/11 00:30:15;;;;;;;28.55;13.05;;;6.00;95.60;;;;;;5008002;28;20353;-75
2021/03/11 00:32:41;;;;;;;20.55;10.82;;;6.00;95.70;;;;;;4991956;28;20037;-74
2021/03/11 00:35:08;;;;;;;20.65;11.13;;;6.10;95.80;;;;;;5009225;28;20369;-73
2021/03/11 00:37:35;;;;;;;25.27;13.23;;;6.10;96.00;;;;;;4990714;28;20046;-73
2021/03/11 00:40:06;;;;;;;26.52;12.13;;;6.10;96.00;;;;;;5005549;28;20074;-73
2021/03/11 00:42:31;;;;;;;23.27;13.32;;;6.00;95.90;;;;;;5007574;28;20338;-74
2021/03/11 00:44:57;;;;;;;27.05;11.93;;;6.00;95.90;;;;;;5009838;28;20050;-74
2021/03/11 00:47:23;;;;;;;25.58;12.45;;;6.00;96.00;;;;;;5008920;28;20068;-73
2021/03/11 00:49:49;;;;;;;28.52;13.50;;;6.10;96.10;;;;;;4992034;28;20121;-73
2021/03/11 00:52:15;;;;;;;22.63;11.63;;;6.10;96.00;;;;;;5004279;28;20057;-74
2021/03/11 00:54:41;;;;;;;27.27;13.73;;;6.10;96.00;;;;;;4992058;28;20042;-74
2021/03/11 00:57:07;;;;;;;27.65;12.43;;;6.10;96.00;;;;;;5008803;28;20042;-74
2021/03/11 00:59:34;;;;;;;21.60;11.45;;;6.10;96.00;;;;;;5006945;28;20128;-74
2021/03/11 01:01:59;;;;;;;28.50;12.75;;;6.10;96.00;;;;;;5002900;28;20062;-74
2021/03/11 01:04:26;;;;;;;26.73;11.98;;;6.10;96.00;;;;;;4997259;28;20650;-74
2021/03/11 01:06:51;;;;;;;29.17;13.30;;;6.10;96.10;;;;;;4991918;28;20046;-73
2021/03/11 01:09:17;;;;;;;26.58;12.13;;;6.10;96.10;;;;;;5008671;28;20442;-73
2021/03/11 01:11:43;;;;;;;27.08;13.85;;;6.10;96.20;;;;;;4991244;28;20089;-73
2021/03/11 01:14:10;;;;;;;26.98;12.07;;;6.10;96.30;;;;;;5000162;28;20076;-73
2021/03/11 01:16:36;;;;;;;20.45;9.73;;;6.10;96.30;;;;;;4990945;28;20097;-73
2021/03/11 01:19:02;;;;;;;23.40;10.82;;;6.10;96.30;;;;;;4975428;28;20038;-73
2021/03/11 01:21:28;;;;;;;14.07;7.55;;;6.10;96.30;;;;;;5008895;28;20053;-73
2021/03/11 01:23:54;;;;;;;17.80;9.38;;;6.10;96.40;;;;;;5008824;28;20438;-73
2021/03/11 01:26:20;;;;;;;17.42;10.75;;;6.10;96.30;;;;;;5008146;28;20061;-73
2021/03/11 01:28:46;;;;;;;19.88;10.32;;;6.10;96.30;;;;;;5008272;28;20645;-73
2021/03/11 01:31:12;;;;;;;22.55;11.73;;;6.10;96.30;;;;;;4975290;28;20093;-73
2021/03/11 01:33:37;;;;;;;19.77;11.13;;;6.10;96.40;;;;;;4988671;28;20042;-74
2021/03/11 01:36:04;;;;;;;28.25;11.98;;;6.10;96.30;;;;;;4988898;28;20466;-74
2021/03/11 01:38:29;;;;;;;21.17;9.95;;;6.10;96.50;;;;;;4975420;28;20050;-74
2021/03/11 01:40:56;;;;;;;23.48;10.68;;;6.10;96.30;;;;;;4989124;28;20054;-74
2021/03/11 01:43:22;;;;;;;17.52;8.88;;;6.10;96.50;;;;;;4972606;28;20044;-73
2021/03/11 01:45:48;;;;;;;18.15;7.47;;;6.10;96.50;;;;;;4972196;28;20042;-74
2021/03/11 01:48:13;;;;;;;19.20;10.10;;;6.10;96.60;;;;;;4985483;28;20103;-74
2021/03/11 01:50:40;;;;;;;19.23;8.77;;;6.10;96.50;;;;;;4991439;28;20038;-73
2021/03/11 01:53:07;;;;;;;19.95;10.98;;;6.20;96.60;;;;;;4990996;28;20048;-73
2021/03/11 01:55:33;;;;;;;22.00;9.65;;;6.20;96.50;;;;;;5002687;28;20050;-73
2021/03/11 01:58:00;;;;;;;21.05;10.25;;;6.20;96.50;;;;;;4994961;28;20778;-73
2021/03/11 02:00:26;;;;;;;17.80;9.43;;;6.20;96.40;;;;;;4990720;28;20402;-73
2021/03/11 02:02:52;;;;;;;18.05;8.82;;;6.20;96.50;;;;;;5008923;28;20089;-73
2021/03/11 02:05:19;;;;;;;20.27;9.27;;;6.20;96.40;;;;;;5008033;28;20050;-73
2021/03/11 02:07:46;;;;;;;22.50;11.75;;;6.20;96.40;;;;;;4990793;28;20069;-74
2021/03/11 02:10:17;;;;;;;18.88;8.57;;;6.20;96.20;;;;;;4988530;28;20046;-74
2021/03/11 02:13:21;;;;;;;22.05;9.68;;;6.20;96.30;;;;;;5002933;28;20052;-74
2021/03/11 02:16:01;;;;;;;16.67;7.82;;;6.20;96.40;;;;;;4970291;28;20093;-74
2021/03/11 02:18:46;;;;;;;18.25;8.18;;;6.30;96.50;;;;;;4992055;28;20505;-73
2021/03/11 02:21:39;;;;;;;12.45;7.65;;;6.30;96.60;;;;;;5008167;28;20449;-74
2021/03/11 02:24:23;;;;;;;18.77;9.38;;;6.30;96.50;;;;;;4968972;28;20677;-73
2021/03/11 02:26:55;;;;;;;11.25;5.45;;;6.30;96.60;;;;;;4952256;28;20043;-73
2021/03/11 02:29:28;;;;;;;18.13;8.80;;;6.30;96.50;;;;;;4970217;28;20099;-73
2021/03/11 02:31:57;;;;;;;17.10;7.80;;;6.30;96.40;;;;;;4996448;28;20049;-73
2021/03/11 02:34:26;;;;;;;15.02;8.70;;;6.30;96.40;;;;;;4987839;28;20061;-74
2021/03/11 02:36:59;;;;;;;12.38;7.22;;;6.30;96.40;;;;;;4989748;28;20046;-73
2021/03/11 02:39:28;;;;;;;17.45;9.38;;;6.30;96.50;;;;;;4991834;28;20030;-73
2021/03/11 02:41:56;;;;;;;24.55;9.10;;;6.40;96.40;;;;;;4985641;28;20423;-74
2021/03/11 02:44:23;;;;;;;16.63;7.82;;;6.40;96.30;;;;;;5007597;28;20481;-74
2021/03/11 02:46:51;;;;;;;13.00;6.38;;;6.40;96.50;;;;;;4976845;28;20038;-74
2021/03/11 02:49:20;;;;;;;14.52;7.22;;;6.40;96.60;;;;;;5008248;28;20203;-73
2021/03/11 02:51:48;;;;;;;14.52;7.35;;;6.40;96.40;;;;;;4992969;28;20378;-74
2021/03/11 02:54:15;;;;;;;16.20;7.88;;;6.40;96.50;;;;;;5003932;28;20034;-74
2021/03/11 02:56:42;;;;;;;16.70;7.50;;;6.40;96.40;;;;;;5010812;28;20327;-74
2021/03/11 02:59:10;;;;;;;16.08;7.68;;;6.40;96.30;;;;;;4993521;28;20046;-74
2021/03/11 03:01:38;;;;;;;17.48;9.60;;;6.40;96.40;;;;;;5011134;28;20038;-74
2021/03/11 03:04:05;;;;;;;18.83;7.95;;;6.40;96.40;;;;;;5010928;28;20057;-74
2021/03/11 03:06:32;;;;;;;16.55;8.68;;;6.50;96.50;;;;;;5011392;28;20042;-74
2021/03/11 03:08:59;;;;;;;16.13;8.50;;;6.50;96.40;;;;;;4988546;28;20126;-73
2021/03/11 03:11:25;;;;;;;17.35;7.85;;;6.50;96.40;;;;;;4992307;28;20045;-73
2021/03/11 03:13:52;;;;;;;14.30;7.95;;;6.50;96.30;;;;;;5010013;28;20041;-74
2021/03/11 03:16:18;;;;;;;16.15;8.77;;;6.40;96.30;;;;;;4993489;28;20132;-74
2021/03/11 03:18:45;;;;;;;15.68;7.40;;;6.50;96.30;;;;;;5011033;28;20077;-74
2021/03/11 03:21:13;;;;;;;14.25;7.00;;;6.50;96.40;;;;;;4972517;28;20087;-74
2021/03/11 03:23:39;;;;;;;12.35;6.75;;;6.60;96.30;;;;;;4993403;28;20049;-74
2021/03/11 03:26:06;;;;;;;22.02;8.93;;;6.60;96.40;;;;;;4991102;28;20043;-74
2021/03/11 03:28:32;;;;;;;13.15;6.80;;;6.60;96.20;;;;;;4974095;28;20042;-74
2021/03/11 03:30:58;;;;;;;14.07;7.50;;;6.50;96.20;;;;;;4974398;28;20741;-75
2021/03/11 03:33:27;;;;;;;17.40;9.60;;;6.60;96.30;;;;;;4990740;28;20046;-76
2021/03/11 03:35:53;;;;;;;17.13;7.50;;;6.60;96.20;;;;;;5003081;28;20073;-75
2021/03/11 03:38:21;;;;;;;17.70;8.85;;;6.60;96.40;;;;;;4986403;28;20121;-76
2021/03/11 03:40:47;;;;;;;14.15;8.48;;;6.60;96.10;;;;;;4993009;28;20125;-75
2021/03/11 03:43:22;;;;;;;14.70;7.28;;;6.60;96.00;;;;;;5006557;28;20044;-76
2021/03/11 03:45:54;;;;;;;14.75;8.45;;;6.60;96.10;;;;;;5010333;28;20107;-75
2021/03/11 03:48:28;;;;;;;8.95;5.28;;;6.60;96.10;;;;;;4993062;28;20473;-76
2021/03/11 03:50:55;;;;;;;11.23;6.57;;;6.70;96.10;;;;;;5010746;28;20582;-77
2021/03/11 03:53:25;;;;;;;12.07;6.90;;;6.70;96.10;;;;;;4991623;28;20044;-77
2021/03/11 03:55:57;;;;;;;14.02;7.30;;;6.70;96.00;;;;;;4992994;28;20053;-77
2021/03/11 03:58:26;;;;;;;10.73;4.93;;;6.70;96.10;;;;;;5009395;28;20141;-76
2021/03/11 04:00:53;;;;;;;14.98;6.95;;;6.60;96.00;;;;;;4992072;28;20042;-77
2021/03/11 04:03:21;;;;;;;12.40;6.50;;;6.70;96.10;;;;;;5009186;28;20173;-77
2021/03/11 04:05:48;;;;;;;10.90;6.88;;;6.70;96.10;;;;;;5009225;28;20096;-77
2021/03/11 04:08:16;;;;;;;10.23;6.03;;;6.70;96.10;;;;;;5009615;28;20393;-78
2021/03/11 04:10:43;;;;;;;10.48;5.65;;;6.70;96.10;;;;;;4991773;28;20049;-77
2021/03/11 04:13:10;;;;;;;10.90;5.80;;;6.70;96.10;;;;;;5005056;28;20038;-76
2021/03/11 04:15:36;;;;;;;10.77;5.95;;;6.70;96.00;;;;;;5005823;28;20041;-76
2021/03/11 04:18:03;;;;;;;8.20;4.60;;;6.80;96.10;;;;;;5009976;28;20168;-76
2021/03/11 04:20:30;;;;;;;13.18;5.43;;;6.80;96.20;;;;;;4992799;28;20068;-76
2021/03/11 04:22:56;;;;;;;6.75;4.55;;;6.70;96.10;;;;;;5009948;28;20041;-76
2021/03/11 04:25:23;;;;;;;12.05;5.32;;;6.80;96.10;;;;;;4977086;28;20708;-77
2021/03/11 04:27:50;;;;;;;10.52;5.80;;;6.80;96.10;;;;;;4990405;28;20531;-76
2021/03/11 04:30:17;;;;;;;10.65;5.43;;;6.80;96.10;;;;;;4991204;28;20455;-76
2021/03/11 04:32:45;;;;;;;7.88;5.82;;;6.90;96.00;;;;;;4990507;28;20050;-76
2021/03/11 04:35:11;;;;;;;10.65;6.00;;;7.00;96.20;;;;;;4956626;28;20042;-76
2021/03/11 04:37:37;;;;;;;10.48;5.68;;;6.90;96.30;;;;;;4972782;28;20046;-76
2021/03/11 04:40:05;;;;;;;10.15;5.25;;;6.90;96.30;;;;;;4968954;28;20441;-76
2021/03/11 04:42:31;;;;;;;12.48;6.38;;;6.90;96.40;;;;;;5006273;28;20046;-75
2021/03/11 04:44:57;;;;;;;12.00;5.60;;;7.00;96.50;;;;;;4967014;28;20122;-75
2021/03/11 04:47:24;;;;;;;10.35;6.57;;;6.90;96.60;;;;;;4975459;28;20507;-76
2021/03/11 04:49:50;;;;;;;9.45;5.07;;;7.00;96.60;;;;;;4983002;28;20587;-76
2021/03/11 04:52:17;;;;;;;12.65;6.82;;;7.00;96.70;;;;;;4983742;28;20041;-76
2021/03/11 04:54:42;;;;;;;12.65;6.88;;;7.00;96.50;;;;;;4985635;28;20046;-76
2021/03/11 04:57:08;;;;;;;10.85;5.28;;;7.00;96.60;;;;;;4967411;28;20035;-76
2021/03/11 04:59:36;;;;;;;12.20;4.95;;;7.00;96.70;;;;;;4974378;28;20042;-76
2021/03/11 05:02:06;;;;;;;14.10;6.32;;;7.00;96.60;;;;;;4979612;28;20061;-76
2021/03/11 05:04:33;;;;;;;12.85;6.57;;;7.10;96.50;;;;;;4958543;28;20042;-76
2021/03/11 05:06:58;;;;;;;11.55;6.88;;;7.10;96.40;;;;;;4981528;28;20066;-76
2021/03/11 05:09:24;;;;;;;10.30;6.63;;;7.20;96.40;;;;;;4960677;28;20124;-77
2021/03/11 05:11:50;;;;;;;9.70;5.32;;;7.20;96.30;;;;;;4985412;28;20415;-75
2021/03/11 05:14:16;;;;;;;12.30;6.97;;;7.20;96.30;;;;;;4981543;28;20045;-77
2021/03/11 05:16:41;;;;;;;9.75;5.53;;;7.20;96.20;;;;;;4977678;28;20419;-76
2021/03/11 05:19:07;;;;;;;10.98;5.35;;;7.30;96.30;;;;;;4981837;28;20096;-77
2021/03/11 05:21:33;;;;;;;12.10;5.43;;;7.30;96.20;;;;;;4964060;28;20356;-77
2021/03/11 05:24:05;;;;;;;8.95;4.57;;;7.30;96.20;;;;;;4992697;28;20062;-75
2021/03/11 05:26:30;;;;;;;8.18;4.35;;;7.30;96.20;;;;;;4958178;28;20338;-76
2021/03/11 05:28:57;;;;;;;10.20;5.85;;;7.40;96.20;;;;;;4984450;28;20047;-76
2021/03/11 05:31:23;;;;;;;9.43;5.88;;;7.40;96.10;;;;;;4977825;28;20043;-75
2021/03/11 05:33:49;;;;;;;10.70;5.68;;;7.40;96.30;;;;;;4968287;28;20057;-77
2021/03/11 05:36:14;;;;;;;12.27;6.65;;;7.50;96.30;;;;;;5003416;28;20040;-76
2021/03/11 05:38:46;;;;;;;11.93;6.43;;;7.60;96.30;;;;;;4998896;28;20525;-76
2021/03/11 05:41:16;;;;;;;13.52;7.20;;;7.60;96.10;;;;;;4989045;28;20410;-77
2021/03/11 05:43:42;;;;;;;10.18;5.35;;;7.60;96.10;;;;;;4983389;28;20462;-76
2021/03/11 05:46:12;;;;;;;9.23;4.32;;;7.60;96.00;;;;;;4974679;28;20127;-76
2021/03/11 05:48:40;;;;;;;13.93;6.32;;;7.70;96.00;;;;;;5006739;28;20046;-76
2021/03/11 05:51:08;;;;;;;13.85;6.25;;;7.70;96.00;;;;;;5008106;28;20045;-77
2021/03/11 05:53:36;;;;;;;11.52;5.78;;;7.70;96.00;;;;;;4990916;28;20048;-77
2021/03/11 05:56:01;;;;;;;12.70;6.95;;;7.80;95.90;;;;;;5008700;28;20038;-78
2021/03/11 05:58:27;;;;;;;11.38;6.75;;;7.70;95.90;;;;;;4990925;28;20046;-78
2021/03/11 06:00:53;;;;;;;9.23;5.03;;;7.80;95.90;;;;;;4989238;28;20038;-78
2021/03/11 06:03:23;;;;;;;10.40;5.40;;;7.80;95.80;;;;;;4990659;28;20057;-76
2021/03/11 06:05:49;;;;;;;12.07;6.55;;;7.80;95.70;;;;;;5008377;28;20040;-78
2021/03/11 06:08:15;;;;;;;11.15;5.43;;;7.80;95.60;;;;;;5008187;28;20049;-77
2021/03/11 06:10:42;;;;;;;16.33;7.68;;;7.90;95.60;;;;;;4975486;28;20460;-75
2021/03/11 06:13:09;;;;;;;11.10;5.93;;;7.90;95.50;;;;;;4975516;28;20038;-75
2021/03/11 06:15:36;;;;;;;12.77;6.63;;;8.00;95.40;;;;;;5005036;28;20136;-76
2021/03/11 06:18:07;;;;;;;12.23;5.97;;;8.00;95.30;;;;;;5002933;28;20042;-76
2021/03/11 06:20:34;;;;;;;12.65;6.43;;;8.00;95.30;;;;;;5005816;28;20037;-76
2021/03/11 06:23:00;;;;;;;11.27;6.60;;;8.00;95.20;;;;;;4994547;28;20049;-75
2021/03/11 06:25:28;;;;;;;13.98;7.00;;;8.00;95.30;;;;;;5010870;28;20416;-76
2021/03/11 06:27:54;;;;;;;13.18;5.97;;;8.00;95.30;;;;;;5011556;28;20034;-75
2021/03/11 06:30:40;;;;;;;12.10;6.10;;;8.10;95.30;;;;;;5008174;28;20672;-76
2021/03/11 06:33:06;;;;;;;11.23;6.07;;;8.10;95.50;;;;;;5010791;28;20180;-76
2021/03/11 06:35:34;;;;;;;11.98;7.43;;;8.10;95.40;;;;;;5011151;28;20125;-76
2021/03/11 06:38:00;;;;;;;12.45;5.50;;;8.10;95.50;;;;;;4992329;28;20042;-76
2021/03/11 06:40:27;;;;;;;12.40;5.78;;;8.10;95.50;;;;;;5010392;28;20088;-75
2021/03/11 06:43:11;;;;;;;6.82;4.20;;;8.10;95.60;;;;;;5008969;28;20053;-75
2021/03/11 06:45:38;;;;;;;12.13;5.88;;;8.10;95.80;;;;;;5012022;28;20149;-75
2021/03/11 06:48:25;;;;;;;11.02;5.43;;;8.20;95.70;;;;;;5010567;28;20049;-75
2021/03/11 06:50:52;;;;;;;8.75;4.60;;;8.20;95.80;;;;;;5005269;28;20423;-75
2021/03/11 06:53:18;;;;;;;5.70;3.38;;;8.20;95.70;;;;;;4993197;28;20042;-76
2021/03/11 06:55:43;;;;;;;6.53;2.97;;;8.20;95.60;;;;;;5011239;28;20443;-75
2021/03/11 06:58:23;;;;;;;6.82;3.88;;;8.20;95.60;;;;;;5010224;28;20049;-76
2021/03/11 07:01:06;;;;;;;7.80;3.53;;;8.30;95.70;;;;;;5005513;28;20108;-76
2021/03/11 07:03:38;;;;;;;6.57;4.13;;;8.30;95.50;;;;;;4990227;28;20708;-76
2021/03/11 07:06:04;;;;;;;10.95;5.43;;;8.40;95.30;;;;;;4973576;28;20046;-76
2021/03/11 07:08:30;;;;;;;7.55;3.55;;;8.40;95.30;;;;;;4993168;28;20149;-76
2021/03/11 07:11:04;;;;;;;9.30;3.45;;;8.50;95.20;;;;;;4993482;28;20389;-76
2021/03/11 07:13:41;;;;;;;9.93;4.45;;;8.50;95.20;;;;;;4990656;28;20069;-76
2021/03/11 07:16:24;;;;;;;9.35;5.10;;;8.60;95.50;;;;;;4993232;28;20053;-76
2021/03/11 07:19:13;;;;;;;10.23;4.57;;;8.50;95.40;;;;;;5010798;28;20149;-76
2021/03/11 07:21:45;;;;;;;9.77;3.97;;;8.60;95.10;;;;;;4988666;28;20077;-75
2021/03/11 07:24:11;;;;;;;12.38;5.43;;;8.70;95.00;;;;;;5010487;28;20046;-76
2021/03/11 07:26:38;;;;;;;8.60;5.60;;;8.80;94.90;;;;;;5009681;28;20362;-76
2021/03/11 07:29:17;;;;;;;11.23;5.32;;;8.80;94.70;;;;;;5010275;28;20564;-76
2021/03/11 07:31:44;;;;;;;8.75;4.18;;;8.90;94.60;;;;;;5009576;28;20050;-77
2021/03/11 07:34:11;;;;;;;9.93;5.60;;;8.90;94.50;;;;;;5010154;28;20041;-76
2021/03/11 07:36:39;;;;;;;11.20;6.32;;;9.00;94.50;;;;;;5010047;28;20046;-76
2021/03/11 07:39:08;;;;;;;12.07;5.70;;;9.00;94.30;;;;;;5008922;28;20387;-76
2021/03/11 07:41:34;;;;;;;6.43;4.07;;;9.10;94.10;;;;;;4992502;28;20052;-76
2021/03/11 07:44:00;;;;;;;9.50;3.72;;;9.10;93.80;;;;;;5008789;28;20046;-76
2021/03/11 07:46:26;;;;;;;8.73;4.70;;;9.10;93.90;;;;;;5009428;28;20165;-76
2021/03/11 07:48:53;;;;;;;10.10;4.25;;;9.10;93.80;;;;;;4976736;28;20046;-76
2021/03/11 07:51:19;;;;;;;12.38;3.67;;;9.20;93.60;;;;;;5009571;28;20058;-75
2021/03/11 07:53:45;;;;;;;10.55;4.82;;;9.20;93.50;;;;;;4992878;28;20362;-76
2021/03/11 07:56:12;;;;;;;14.77;4.82;;;9.20;93.60;;;;;;4992008;28;20445;-76
2021/03/11 07:58:38;;;;;;;16.33;5.47;;;9.20;93.60;;;;;;4976466;28;20405;-76
2021/03/11 08:01:05;;;;;;;15.57;5.32;;;9.20;93.70;;;;;;5009328;28;20044;-75
2021/03/11 08:03:33;;;;;;;9.80;4.22;;;9.20;93.70;;;;;;5005455;28;20058;-76
2021/03/11 08:06:21;;;;;;;12.50;5.97;;;9.20;93.80;;;;;;4999451;28;20771;-76
2021/03/11 08:08:48;;;;;;;11.30;3.90;;;9.20;93.80;;;;;;4988380;28;20053;-75
2021/03/11 08:11:38;;;;;;;9.98;2.95;;;9.20;93.60;;;;;;5004890;28;20802;-75
2021/03/11 08:14:23;;;;;;;15.02;6.05;;;9.20;93.40;;;;;;5003892;28;20116;-75
2021/03/11 08:16:50;;;;;;;10.27;4.20;;;9.30;93.30;;;;;;5004335;28;20069;-75
2021/03/11 08:19:34;;;;;;;10.07;3.60;;;9.40;93.30;;;;;;5003807;28;20096;-76
2021/03/11 08:22:00;;;;;;;;;;;9.60;92.70;;;;;;5005009;28;20057;-75
2021/03/11 08:24:42;;;;;;;17.52;4.82;;;9.60;92.40;;;;;;5008508;28;19925;-75
2021/03/11 08:27:38;;;;;;;10.57;3.58;;;9.50;92.50;;;;;;5008863;28;20038;-75
2021/03/11 08:30:06;;;;;;;18.60;3.67;;;9.60;92.20;;;;;;4992672;28;20268;-75
2021/03/11 08:32:48;;;;;;;12.98;2.88;;;9.60;92.50;;;;;;4991518;28;20057;-75
2021/03/11 08:35:26;;;;;;;10.35;3.30;;;9.60;91.90;;;;;;4983552;28;20540;-75
2021/03/11 08:37:53;;;;;;;15.35;2.88;;;9.80;91.70;;;;;;4990268;28;20148;-75
2021/03/11 08:40:38;;;;;;;15.68;2.55;;;10.40;91.20;;;;;;4991262;28;20041;-75
2021/03/11 08:43:04;;;;;;;11.60;2.28;;;10.40;90.00;;;;;;5008374;28;20065;-75
2021/03/11 08:45:36;;;;;;;19.73;3.42;;;10.20;90.70;;;;;;4991778;28;20045;-76
2021/03/11 08:48:22;;;;;;;15.25;2.63;;;10.10;90.80;;;;;;5008710;28;20041;-75
2021/03/11 08:50:49;;;;;;;12.13;2.53;;;10.00;90.30;;;;;;4980763;28;20100;-75
2021/03/11 08:53:47;;;;;;;18.02;3.50;;;9.90;90.70;;;;;;4991119;28;20046;-75
2021/03/11 08:56:16;;;;;;;16.05;2.42;;;9.80;90.40;;;;;;5009022;28;20052;-75
2021/03/11 08:58:58;;;;;;;17.55;2.47;;;9.80;90.50;;;;;;5008348;28;20045;-74
2021/03/11 09:01:44;;;;;;;21.02;3.70;;;9.80;88.00;;;;;;5003270;28;20342;-74
2021/03/11 09:04:20;;;;;;;19.70;3.75;;;9.90;87.20;;;;;;5004222;28;20073;-75
2021/03/11 09:06:58;;;;;;;27.13;5.32;;;10.00;87.70;;;;;;5009084;28;20417;-75
2021/03/11 09:09:50;;;;;;;18.00;6.43;;;10.00;85.30;;;;;;4990645;28;20076;-75
2021/03/11 09:12:27;;;;;;;18.52;2.90;;;10.00;84.60;;;;;;5008020;28;20041;-75
2021/03/11 09:14:55;;;;;;;20.02;5.20;;;10.00;87.50;;;;;;5008218;28;20311;-75
2021/03/11 09:17:23;;;;;;;33.20;3.83;;;10.00;85.70;;;;;;5007904;28;20037;-75
2021/03/11 09:20:03;;;;;;;30.15;4.43;;;10.10;85.90;;;;;;4988435;28;20049;-75
2021/03/11 09:22:34;;;;;;;27.98;5.20;;;10.20;85.10;;;;;;4991894;28;20061;-74
2021/03/11 09:25:20;;;;;;;33.53;4.55;;;10.30;86.70;;;;;;5008506;28;20056;-77
2021/03/11 09:28:03;;;;;;;27.30;6.90;;;10.30;83.50;;;;;;4990912;28;20041;-76
2021/03/11 09:30:41;;;;;;;34.83;4.78;;;10.30;84.20;;;;;;5009068;28;20124;-76
2021/03/11 09:33:12;;;;;;;31.45;7.45;;;10.40;84.70;;;;;;4990585;28;20419;-76
2021/03/11 09:35:39;;;;;;;20.40;3.40;;;10.40;86.20;;;;;;4986746;28;20073;-76
2021/03/11 09:38:06;;;;;;;28.63;7.22;;;10.40;85.10;;;;;;5006292;28;20109;-76
2021/03/11 09:40:40;;;;;;;23.70;5.55;;;10.40;86.10;;;;;;5008081;28;20045;-76
2021/03/11 09:43:11;;;;;;;26.98;4.03;;;10.40;84.20;;;;;;5004441;28;20041;-77
2021/03/11 09:45:51;;;;;;;23.33;5.05;;;10.40;83.90;;;;;;5008217;28;20421;-77
2021/03/11 09:48:31;;;;;;;26.60;5.38;;;10.50;84.80;;;;;;5007890;28;20041;-77
2021/03/11 09:51:18;;;;;;;24.15;4.60;;;10.40;83.00;;;;;;5011508;28;20037;-77
2021/03/11 09:53:49;;;;;;;24.45;5.20;;;10.50;83.10;;;;;;4982986;28;20172;-77
2021/03/11 09:56:21;;;;;;;24.73;3.83;;;10.40;84.70;;;;;;5012336;28;20112;-77
2021/03/11 09:58:56;;;;;;;23.88;4.78;;;10.40;86.00;;;;;;4978370;28;20038;-77
2021/03/11 10:01:36;;;;;;;22.85;4.25;;;10.40;86.10;;;;;;5011714;28;20327;-77
2021/03/11 10:04:12;;;;;;;25.25;4.60;;;10.40;83.20;;;;;;5006996;28;20116;-76
2021/03/11 10:06:48;;;;;;;25.48;4.32;;;10.40;83.10;;;;;;5012111;28;20038;-76
2021/03/11 10:09:13;;;;;;;22.00;4.35;;;10.30;83.80;;;;;;5012092;28;20066;-76
2021/03/11 10:11:44;;;;;;;22.40;7.15;;;10.30;85.50;;;;;;5011732;28;20445;-76
2021/03/11 10:14:21;;;;;;;25.75;3.20;;;10.30;85.30;;;;;;5011404;28;20044;-75
2021/03/11 10:16:49;;;;;;;25.40;3.97;;;10.30;84.10;;;;;;5011905;28;20688;-77
2021/03/11 10:19:16;;;;;;;26.73;3.88;;;10.20;86.40;;;;;;5004635;28;20171;-76
2021/03/11 10:21:58;;;;;;;32.47;5.85;;;10.20;85.40;;;;;;5011847;28;20046;-75
2021/03/11 10:24:40;;;;;;;17.55;4.05;;;10.10;86.90;;;;;;5010903;28;20042;-76
2021/03/11 10:27:25;;;;;;;26.63;4.30;;;10.10;85.60;;;;;;5012475;28;20038;-76
2021/03/11 10:30:08;;;;;;;21.10;4.13;;;10.00;84.70;;;;;;5011333;28;20069;-76
2021/03/11 10:32:36;;;;;;;28.58;3.40;;;9.90;86.00;;;;;;5011283;28;20072;-75
2021/03/11 10:35:03;;;;;;;17.65;3.97;;;9.90;87.00;;;;;;5009453;28;20048;-74
2021/03/11 10:37:31;;;;;;;23.50;2.33;;;9.80;87.70;;;;;;4991436;28;20042;-75
2021/03/11 10:40:00;;;;;;;16.23;2.75;;;9.60;87.60;;;;;;5005292;28;20109;-75
2021/03/11 10:42:42;;;;;;;34.72;5.53;;;9.50;89.40;;;;;;5005733;28;20080;-75
2021/03/11 10:45:08;;;;;;;17.67;3.83;;;9.40;89.90;;;;;;5006864;28;20049;-74
2021/03/11 10:47:35;;;;;;;26.02;5.55;;;9.30;90.20;;;;;;5006038;28;20053;-74
2021/03/11 10:50:01;;;;;;;22.42;3.25;;;9.20;90.70;;;;;;4982327;28;20063;-74
2021/03/11 10:52:26;;;;;;;20.92;6.68;;;9.10;90.90;;;;;;5008001;28;20041;-75
2021/03/11 10:54:52;;;;;;;27.75;4.60;;;9.10;91.20;;;;;;5007029;28;20048;-75
2021/03/11 10:57:20;;;;;;;9.10;2.90;;;9.10;91.30;;;;;;5009841;28;20702;-74
2021/03/11 10:59:57;;;;;;;14.48;2.25;;;9.00;90.60;;;;;;5009630;28;20042;-75
2021/03/11 11:02:26;;;;;;;28.40;3.97;;;9.00;91.40;;;;;;4985263;28;20077;-75
2021/03/11 11:04:53;;;;;;;15.52;2.95;;;9.00;91.20;;;;;;4987218;28;20141;-75
2021/03/11 11:07:19;;;;;;;18.25;3.10;;;8.90;91.50;;;;;;4992998;28;20046;-75
2021/03/11 11:09:47;;;;;;;21.33;4.32;;;8.90;91.60;;;;;;5007916;28;20120;-75
2021/03/11 11:12:18;;;;;;;23.33;5.03;;;8.80;91.70;;;;;;5000117;28;20181;-74
2021/03/11 11:14:45;;;;;;;19.90;4.30;;;8.70;92.00;;;;;;5000833;28;20037;-75
2021/03/11 11:17:12;;;;;;;21.60;3.30;;;8.60;92.20;;;;;;5008013;28;20061;-74
2021/03/11 11:19:38;;;;;;;21.40;2.90;;;8.50;92.30;;;;;;4989294;28;20042;-74
2021/03/11 11:22:05;;;;;;;22.63;3.08;;;8.50;92.50;;;;;;4992632;28;20128;-73
2021/03/11 11:24:31;;;;;;;22.70;3.67;;;8.40;92.70;;;;;;5009134;28;20647;-74
2021/03/11 11:26:57;;;;;;;18.92;4.07;;;8.30;92.80;;;;;;5001731;28;20041;-73
2021/03/11 11:29:23;;;;;;;15.65;3.25;;;8.30;92.90;;;;;;4989975;28;20041;-73
2021/03/11 11:31:49;;;;;;;17.08;3.22;;;8.20;93.30;;;;;;5003376;28;20041;-73
2021/03/11 11:34:16;;;;;;;13.13;2.80;;;8.20;93.30;;;;;;5009853;28;20120;-73
2021/03/11 11:36:42;;;;;;;26.60;4.65;;;8.20;93.30;;;;;;4969559;28;20042;-73
2021/03/11 11:39:09;;;;;;;18.63;4.20;;;8.20;93.30;;;;;;4993142;28;20622;-73
2021/03/11 11:41:40;;;;;;;12.77;4.82;;;8.20;93.50;;;;;;5000957;28;20046;-73
2021/03/11 11:44:08;;;;;;;18.85;3.75;;;8.20;93.70;;;;;;4978588;28;20045;-73
2021/03/11 11:46:33;;;;;;;25.58;4.47;;;8.20;93.70;;;;;;4981593;28;20041;-73
2021/03/11 11:49:00;;;;;;;25.65;4.82;;;8.20;93.30;;;;;;5002616;28;20057;-73
2021/03/11 11:51:26;;;;;;;18.48;3.47;;;8.20;93.40;;;;;;4984936;28;20609;-73
2021/03/11 11:53:52;;;;;;;20.67;3.97;;;8.20;93.60;;;;;;5005968;28;20038;-73
2021/03/11 11:56:18;;;;;;;21.85;3.50;;;8.20;93.50;;;;;;4994449;28;20140;-74
2021/03/11 11:58:46;;;;;;;27.83;3.53;;;8.20;93.50;;;;;;5000358;28;20468;-74
2021/03/11 12:01:14;;;;;;;17.05;3.85;;;8.20;93.70;;;;;;5004847;28;20063;-74
2021/03/11 12:03:40;;;;;;;21.45;5.28;;;8.20;93.70;;;;;;5003919;28;20046;-74
2021/03/11 12:06:06;;;;;;;21.83;3.03;;;8.20;93.50;;;;;;4979033;28;20042;-74
2021/03/11 12:08:32;;;;;;;32.83;3.60;;;8.30;93.70;;;;;;5005051;28;20061;-74
2021/03/11 12:10:58;;;;;;;20.65;4.22;;;8.30;93.70;;;;;;5009568;28;20042;-73
2021/03/11 12:13:24;;;;;;;25.98;6.07;;;8.30;93.80;;;;;;4986163;28;20045;-74
2021/03/11 12:15:50;;;;;;;22.88;4.53;;;8.30;93.80;;;;;;5009437;28;20342;-74
2021/03/11 12:18:16;;;;;;;19.60;3.78;;;8.30;93.60;;;;;;4991889;28;20042;-74
2021/03/11 12:20:42;;;;;;;21.73;3.85;;;8.40;93.70;;;;;;4992437;28;20052;-74
2021/03/11 12:23:08;;;;;;;19.40;4.80;;;8.40;93.70;;;;;;4977420;28;20133;-73
2021/03/11 12:25:35;;;;;;;22.48;5.43;;;8.40;94.00;;;;;;4976786;28;20120;-75
2021/03/11 12:28:03;;;;;;;25.33;5.68;;;8.40;94.10;;;;;;5004992;28;20030;-74
2021/03/11 12:30:30;;;;;;;19.10;3.45;;;8.40;94.10;;;;;;5001834;28;20057;-75
2021/03/11 12:32:56;;;;;;;25.13;4.32;;;8.50;94.10;;;;;;5006555;28;20038;-75
2021/03/11 12:35:23;;;;;;;24.20;4.05;;;8.50;93.90;;;;;;5004789;28;20332;-74
2021/03/11 12:37:50;;;;;;;18.85;3.45;;;8.50;93.70;;;;;;4988673;28;20046;-75
2021/03/11 12:40:16;;;;;;;24.77;3.75;;;8.50;93.50;;;;;;4990346;28;20044;-75
2021/03/11 12:42:46;;;;;;;9.15;2.30;;;8.50;93.30;;;;;;5002339;28;20042;-75
2021/03/11 12:45:21;;;;;;;17.05;1.95;;;8.50;92.50;;;;;;4974849;28;20060;-75
2021/03/11 12:47:47;;;;;;;13.35;2.20;;;8.60;92.70;;;;;;4993818;28;20052;-75
2021/03/11 12:50:15;;;;;;;11.77;2.53;;;8.70;92.40;;;;;;5003778;28;20041;-75
2021/03/11 12:52:41;;;;;;;18.35;2.55;;;8.70;92.10;;;;;;5001260;28;20049;-74
2021/03/11 12:55:08;;;;;;;12.82;3.60;;;8.70;92.40;;;;;;5005263;28;20426;-76
2021/03/11 12:57:34;;;;;;;11.65;1.88;;;8.70;92.20;;;;;;5003898;28;20042;-74